sensor_id;sensor_type;location;lat;lon;timestamp;P1;durP1;ratioP1;P2;durP2;ratioP2
21432;SDS011;18592;49.708;10.900;2024-01-30T00:00:21;183.60;;;104.18;;
21432;SDS011;18592;49.708;10.900;2024-01-30T00:02:23;177.77;;;105.07;;
21432;SDS011;18592;49.708;10.900;2024-01-30T00:04:25;170.15;;;103.90;;
21432;SDS011;18592;49.708;10.900;2024-01-30T00:06:29;182.40;;;105.57;;
21432;SDS011;18592;49.708;10.900;2024-01-30T00:08:32;176.23;;;106.63;;
21432;SDS011;18592;49.708;10.900;2024-01-30T00:10:36;181.10;;;104.28;;
21432;SDS011;18592;49.708;10.900;2024-01-30T00:12:41;176.68;;;106.18;;
21432;SDS011;18592;49.708;10.900;2024-01-30T00:14:43;180.32;;;105.90;;
21432;SDS011;18592;49.708;10.900;2024-01-30T00:16:45;187.43;;;109.57;;
21432;SDS011;18592;49.708;10.900;2024-01-30T00:18:50;192.95;;;111.35;;
21432;SDS011;18592;49.708;10.900;2024-01-30T00:20:54;184.55;;;107.15;;
21432;SDS011;18592;49.708;10.900;2024-01-30T00:22:56;184.13;;;106.20;;
21432;SDS011;18592;49.708;10.900;2024-01-30T00:24:58;201.63;;;114.55;;
21432;SDS011;18592;49.708;10.900;2024-01-30T00:27:02;203.48;;;116.13;;
21432;SDS011;18592;49.708;10.900;2024-01-30T00:29:06;182.60;;;108.93;;
21432;SDS011;18592;49.708;10.900;2024-01-30T00:31:09;187.38;;;108.78;;
21432;SDS011;18592;49.708;10.900;2024-01-30T00:33:14;191.57;;;111.43;;
21432;SDS011;18592;49.708;10.900;2024-01-30T00:35:16;200.90;;;116.10;;
21432;SDS011;18592;49.708;10.900;2024-01-30T00:37:18;198.25;;;117.40;;
21432;SDS011;18592;49.708;10.900;2024-01-30T00:39:21;207.40;;;118.75;;
21432;SDS011;18592;49.708;10.900;2024-01-30T00:41:23;215.98;;;123.03;;
21432;SDS011;18592;49.708;10.900;2024-01-30T00:43:27;215.23;;;126.68;;
21432;SDS011;18592;49.708;10.900;2024-01-30T00:45:29;232.57;;;130.77;;
21432;SDS011;18592;49.708;10.900;2024-01-30T00:47:30;223.93;;;126.22;;
21432;SDS011;18592;49.708;10.900;2024-01-30T00:49:34;199.02;;;116.85;;
21432;SDS011;18592;49.708;10.900;2024-01-30T00:51:36;216.15;;;123.93;;
21432;SDS011;18592;49.708;10.900;2024-01-30T00:53:40;225.10;;;125.50;;
21432;SDS011;18592;49.708;10.900;2024-01-30T00:55:45;232.23;;;130.52;;
21432;SDS011;18592;49.708;10.900;2024-01-30T00:57:51;188.82;;;108.50;;
21432;SDS011;18592;49.708;10.900;2024-01-30T00:59:54;161.27;;;92.53;;
21432;SDS011;18592;49.708;10.900;2024-01-30T01:01:56;194.60;;;108.63;;
21432;SDS011;18592;49.708;10.900;2024-01-30T01:04:01;205.35;;;117.28;;
21432;SDS011;18592;49.708;10.900;2024-01-30T01:06:04;227.77;;;130.68;;
21432;SDS011;18592;49.708;10.900;2024-01-30T01:08:06;228.65;;;130.75;;
21432;SDS011;18592;49.708;10.900;2024-01-30T01:10:10;257.33;;;143.88;;
21432;SDS011;18592;49.708;10.900;2024-01-30T01:12:13;265.83;;;148.20;;
21432;SDS011;18592;49.708;10.900;2024-01-30T01:14:16;266.85;;;148.40;;
21432;SDS011;18592;49.708;10.900;2024-01-30T01:16:17;277.60;;;155.25;;
21432;SDS011;18592;49.708;10.900;2024-01-30T01:18:22;273.60;;;153.25;;
21432;SDS011;18592;49.708;10.900;2024-01-30T01:20:28;278.35;;;158.10;;
21432;SDS011;18592;49.708;10.900;2024-01-30T01:22:30;269.35;;;150.45;;
21432;SDS011;18592;49.708;10.900;2024-01-30T01:24:32;282.80;;;157.10;;
21432;SDS011;18592;49.708;10.900;2024-01-30T01:26:42;274.27;;;155.07;;
21432;SDS011;18592;49.708;10.900;2024-01-30T01:28:44;303.00;;;166.32;;
21432;SDS011;18592;49.708;10.900;2024-01-30T01:30:45;296.45;;;164.77;;
21432;SDS011;18592;49.708;10.900;2024-01-30T01:32:48;291.77;;;163.60;;
21432;SDS011;18592;49.708;10.900;2024-01-30T01:34:58;275.00;;;155.05;;
21432;SDS011;18592;49.708;10.900;2024-01-30T01:37:02;270.73;;;152.68;;
21432;SDS011;18592;49.708;10.900;2024-01-30T01:39:04;288.42;;;159.82;;
21432;SDS011;18592;49.708;10.900;2024-01-30T01:41:09;277.73;;;155.68;;
21432;SDS011;18592;49.708;10.900;2024-01-30T01:43:15;278.33;;;157.73;;
21432;SDS011;18592;49.708;10.900;2024-01-30T01:45:20;263.98;;;149.50;;
21432;SDS011;18592;49.708;10.900;2024-01-30T01:47:25;238.55;;;136.73;;
21432;SDS011;18592;49.708;10.900;2024-01-30T01:49:29;263.63;;;148.10;;
21432;SDS011;18592;49.708;10.900;2024-01-30T01:51:32;253.57;;;146.18;;
21432;SDS011;18592;49.708;10.900;2024-01-30T01:53:35;266.67;;;149.23;;
21432;SDS011;18592;49.708;10.900;2024-01-30T01:55:37;250.65;;;145.23;;
21432;SDS011;18592;49.708;10.900;2024-01-30T01:57:38;264.42;;;146.60;;
21432;SDS011;18592;49.708;10.900;2024-01-30T01:59:43;260.25;;;145.35;;
21432;SDS011;18592;49.708;10.900;2024-01-30T02:01:45;247.88;;;139.52;;
21432;SDS011;18592;49.708;10.900;2024-01-30T02:03:52;240.80;;;133.25;;
21432;SDS011;18592;49.708;10.900;2024-01-30T02:05:57;222.80;;;128.18;;
21432;SDS011;18592;49.708;10.900;2024-01-30T02:08:05;218.52;;;125.20;;
21432;SDS011;18592;49.708;10.900;2024-01-30T02:10:14;226.15;;;127.38;;
21432;SDS011;18592;49.708;10.900;2024-01-30T02:12:25;199.07;;;114.07;;
21432;SDS011;18592;49.708;10.900;2024-01-30T02:14:46;211.40;;;120.63;;
21432;SDS011;18592;49.708;10.900;2024-01-30T02:16:48;188.65;;;106.90;;
21432;SDS011;18592;49.708;10.900;2024-01-30T02:18:55;198.27;;;112.13;;
21432;SDS011;18592;49.708;10.900;2024-01-30T02:21:07;195.93;;;114.80;;
21432;SDS011;18592;49.708;10.900;2024-01-30T02:23:09;191.50;;;111.32;;
21432;SDS011;18592;49.708;10.900;2024-01-30T02:25:14;190.88;;;110.28;;
21432;SDS011;18592;49.708;10.900;2024-01-30T02:27:19;146.52;;;85.95;;
21432;SDS011;18592;49.708;10.900;2024-01-30T02:29:22;156.43;;;90.85;;
21432;SDS011;18592;49.708;10.900;2024-01-30T02:31:25;158.95;;;90.28;;
21432;SDS011;18592;49.708;10.900;2024-01-30T02:33:27;154.77;;;89.82;;
21432;SDS011;18592;49.708;10.900;2024-01-30T02:35:28;160.57;;;93.32;;
21432;SDS011;18592;49.708;10.900;2024-01-30T02:37:30;163.55;;;95.45;;
21432;SDS011;18592;49.708;10.900;2024-01-30T02:39:37;145.48;;;84.32;;
21432;SDS011;18592;49.708;10.900;2024-01-30T02:41:38;149.07;;;85.25;;
21432;SDS011;18592;49.708;10.900;2024-01-30T02:43:42;142.15;;;83.82;;
21432;SDS011;18592;49.708;10.900;2024-01-30T02:45:46;140.68;;;81.15;;
21432;SDS011;18592;49.708;10.900;2024-01-30T02:47:50;137.73;;;79.05;;
21432;SDS011;18592;49.708;10.900;2024-01-30T02:49:52;139.75;;;79.93;;
21432;SDS011;18592;49.708;10.900;2024-01-30T02:51:56;133.70;;;76.25;;
21432;SDS011;18592;49.708;10.900;2024-01-30T02:53:58;129.52;;;74.43;;
21432;SDS011;18592;49.708;10.900;2024-01-30T02:56:03;124.40;;;71.70;;
21432;SDS011;18592;49.708;10.900;2024-01-30T02:58:04;121.18;;;70.57;;
21432;SDS011;18592;49.708;10.900;2024-01-30T03:00:09;117.30;;;67.38;;
21432;SDS011;18592;49.708;10.900;2024-01-30T03:02:11;116.57;;;65.78;;
21432;SDS011;18592;49.708;10.900;2024-01-30T03:04:15;110.50;;;63.58;;
21432;SDS011;18592;49.708;10.900;2024-01-30T03:06:17;100.45;;;60.42;;
21432;SDS011;18592;49.708;10.900;2024-01-30T03:08:21;99.13;;;58.85;;
21432;SDS011;18592;49.708;10.900;2024-01-30T03:10:25;98.03;;;58.58;;
21432;SDS011;18592;49.708;10.900;2024-01-30T03:12:26;96.03;;;54.53;;
21432;SDS011;18592;49.708;10.900;2024-01-30T03:14:30;90.60;;;55.38;;
21432;SDS011;18592;49.708;10.900;2024-01-30T03:16:32;86.78;;;50.80;;
21432;SDS011;18592;49.708;10.900;2024-01-30T03:18:39;85.15;;;50.28;;
21432;SDS011;18592;49.708;10.900;2024-01-30T03:20:40;79.80;;;47.72;;
21432;SDS011;18592;49.708;10.900;2024-01-30T03:22:45;78.85;;;47.67;;
21432;SDS011;18592;49.708;10.900;2024-01-30T03:24:46;77.05;;;46.03;;
21432;SDS011;18592;49.708;10.900;2024-01-30T03:26:48;77.32;;;44.20;;
21432;SDS011;18592;49.708;10.900;2024-01-30T03:28:51;70.68;;;42.60;;
21432;SDS011;18592;49.708;10.900;2024-01-30T03:30:55;70.00;;;41.92;;
21432;SDS011;18592;49.708;10.900;2024-01-30T03:32:59;72.10;;;41.85;;
21432;SDS011;18592;49.708;10.900;2024-01-30T03:35:01;61.42;;;37.53;;
21432;SDS011;18592;49.708;10.900;2024-01-30T03:37:05;61.53;;;36.20;;
21432;SDS011;18592;49.708;10.900;2024-01-30T03:39:09;62.47;;;37.25;;
21432;SDS011;18592;49.708;10.900;2024-01-30T03:41:14;54.10;;;34.28;;
21432;SDS011;18592;49.708;10.900;2024-01-30T03:43:16;61.08;;;35.42;;
21432;SDS011;18592;49.708;10.900;2024-01-30T03:45:21;58.55;;;35.28;;
21432;SDS011;18592;49.708;10.900;2024-01-30T03:47:22;59.33;;;37.15;;
21432;SDS011;18592;49.708;10.900;2024-01-30T03:49:26;53.95;;;31.90;;
21432;SDS011;18592;49.708;10.900;2024-01-30T03:51:30;49.60;;;31.50;;
21432;SDS011;18592;49.708;10.900;2024-01-30T03:53:32;48.70;;;29.88;;
21432;SDS011;18592;49.708;10.900;2024-01-30T03:55:34;52.17;;;30.50;;
21432;SDS011;18592;49.708;10.900;2024-01-30T03:57:38;42.25;;;28.58;;
21432;SDS011;18592;49.708;10.900;2024-01-30T03:59:43;51.60;;;30.70;;
21432;SDS011;18592;49.708;10.900;2024-01-30T04:01:46;43.72;;;27.17;;
21432;SDS011;18592;49.708;10.900;2024-01-30T04:03:50;40.70;;;26.67;;
21432;SDS011;18592;49.708;10.900;2024-01-30T04:05:56;37.28;;;23.98;;
21432;SDS011;18592;49.708;10.900;2024-01-30T04:07:57;37.47;;;24.20;;
21432;SDS011;18592;49.708;10.900;2024-01-30T04:10:02;36.53;;;23.30;;
21432;SDS011;18592;49.708;10.900;2024-01-30T04:12:06;37.28;;;22.83;;
21432;SDS011;18592;49.708;10.900;2024-01-30T04:14:08;36.60;;;22.17;;
21432;SDS011;18592;49.708;10.900;2024-01-30T04:16:21;35.33;;;23.02;;
21432;SDS011;18592;49.708;10.900;2024-01-30T04:18:24;27.90;;;19.08;;
21432;SDS011;18592;49.708;10.900;2024-01-30T04:20:29;30.05;;;19.17;;
21432;SDS011;18592;49.708;10.900;2024-01-30T04:22:31;31.35;;;19.63;;
21432;SDS011;18592;49.708;10.900;2024-01-30T04:24:32;27.58;;;17.45;;
21432;SDS011;18592;49.708;10.900;2024-01-30T04:26:34;28.35;;;18.20;;
21432;SDS011;18592;49.708;10.900;2024-01-30T04:28:36;28.38;;;18.25;;
21432;SDS011;18592;49.708;10.900;2024-01-30T04:30:41;20.80;;;13.82;;
21432;SDS011;18592;49.708;10.900;2024-01-30T04:32:46;23.40;;;15.43;;
21432;SDS011;18592;49.708;10.900;2024-01-30T04:34:48;25.10;;;16.00;;
21432;SDS011;18592;49.708;10.900;2024-01-30T04:36:49;24.40;;;15.23;;
21432;SDS011;18592;49.708;10.900;2024-01-30T04:38:51;24.70;;;15.38;;
21432;SDS011;18592;49.708;10.900;2024-01-30T04:40:55;23.70;;;14.15;;
21432;SDS011;18592;49.708;10.900;2024-01-30T04:42:56;21.73;;;13.95;;
21432;SDS011;18592;49.708;10.900;2024-01-30T04:45:00;22.55;;;13.88;;
21432;SDS011;18592;49.708;10.900;2024-01-30T04:47:04;22.85;;;13.70;;
21432;SDS011;18592;49.708;10.900;2024-01-30T04:49:11;18.75;;;12.77;;
21432;SDS011;18592;49.708;10.900;2024-01-30T04:51:13;17.80;;;11.88;;
21432;SDS011;18592;49.708;10.900;2024-01-30T04:53:15;18.08;;;11.85;;
21432;SDS011;18592;49.708;10.900;2024-01-30T04:55:18;17.25;;;11.52;;
21432;SDS011;18592;49.708;10.900;2024-01-30T04:57:23;18.23;;;11.57;;
21432;SDS011;18592;49.708;10.900;2024-01-30T04:59:24;16.80;;;11.60;;
21432;SDS011;18592;49.708;10.900;2024-01-30T05:01:26;18.08;;;12.15;;
21432;SDS011;18592;49.708;10.900;2024-01-30T05:03:28;17.48;;;10.93;;
21432;SDS011;18592;49.708;10.900;2024-01-30T05:05:32;15.57;;;10.73;;
21432;SDS011;18592;49.708;10.900;2024-01-30T05:07:36;16.08;;;10.25;;
21432;SDS011;18592;49.708;10.900;2024-01-30T05:09:38;14.13;;;10.13;;
21432;SDS011;18592;49.708;10.900;2024-01-30T05:11:40;15.30;;;10.05;;
21432;SDS011;18592;49.708;10.900;2024-01-30T05:13:44;14.88;;;9.50;;
21432;SDS011;18592;49.708;10.900;2024-01-30T05:15:46;14.27;;;8.93;;
21432;SDS011;18592;49.708;10.900;2024-01-30T05:17:49;12.27;;;9.30;;
21432;SDS011;18592;49.708;10.900;2024-01-30T05:19:53;13.52;;;8.63;;
21432;SDS011;18592;49.708;10.900;2024-01-30T05:21:55;13.23;;;8.25;;
21432;SDS011;18592;49.708;10.900;2024-01-30T05:23:58;13.98;;;8.40;;
21432;SDS011;18592;49.708;10.900;2024-01-30T05:25:59;13.18;;;8.75;;
21432;SDS011;18592;49.708;10.900;2024-01-30T05:28:02;11.57;;;8.30;;
21432;SDS011;18592;49.708;10.900;2024-01-30T05:30:09;11.63;;;7.97;;
21432;SDS011;18592;49.708;10.900;2024-01-30T05:32:24;11.00;;;7.53;;
21432;SDS011;18592;49.708;10.900;2024-01-30T05:34:26;11.55;;;7.32;;
21432;SDS011;18592;49.708;10.900;2024-01-30T05:36:27;11.50;;;7.70;;
21432;SDS011;18592;49.708;10.900;2024-01-30T05:38:29;10.80;;;7.38;;
21432;SDS011;18592;49.708;10.900;2024-01-30T05:40:31;11.00;;;6.90;;
21432;SDS011;18592;49.708;10.900;2024-01-30T05:42:34;10.23;;;7.82;;
21432;SDS011;18592;49.708;10.900;2024-01-30T05:44:38;8.95;;;6.90;;
21432;SDS011;18592;49.708;10.900;2024-01-30T05:46:42;9.10;;;6.53;;
21432;SDS011;18592;49.708;10.900;2024-01-30T05:48:46;8.88;;;6.20;;
21432;SDS011;18592;49.708;10.900;2024-01-30T05:50:50;8.07;;;5.97;;
21432;SDS011;18592;49.708;10.900;2024-01-30T05:52:52;8.70;;;6.20;;
21432;SDS011;18592;49.708;10.900;2024-01-30T05:54:54;10.00;;;6.28;;
21432;SDS011;18592;49.708;10.900;2024-01-30T05:56:58;8.52;;;6.40;;
21432;SDS011;18592;49.708;10.900;2024-01-30T05:59:04;10.68;;;6.50;;
21432;SDS011;18592;49.708;10.900;2024-01-30T06:01:06;8.15;;;5.95;;
21432;SDS011;18592;49.708;10.900;2024-01-30T06:03:09;7.82;;;5.93;;
21432;SDS011;18592;49.708;10.900;2024-01-30T06:05:11;8.73;;;6.22;;
21432;SDS011;18592;49.708;10.900;2024-01-30T06:07:16;8.50;;;5.93;;
21432;SDS011;18592;49.708;10.900;2024-01-30T06:09:19;7.80;;;5.90;;
21432;SDS011;18592;49.708;10.900;2024-01-30T06:11:23;7.97;;;5.97;;
21432;SDS011;18592;49.708;10.900;2024-01-30T06:13:24;6.68;;;5.22;;
21432;SDS011;18592;49.708;10.900;2024-01-30T06:15:26;8.77;;;5.35;;
21432;SDS011;18592;49.708;10.900;2024-01-30T06:17:28;7.65;;;5.65;;
21432;SDS011;18592;49.708;10.900;2024-01-30T06:19:32;8.80;;;6.13;;
21432;SDS011;18592;49.708;10.900;2024-01-30T06:21:36;7.97;;;5.75;;
21432;SDS011;18592;49.708;10.900;2024-01-30T06:23:40;6.90;;;5.40;;
21432;SDS011;18592;49.708;10.900;2024-01-30T06:25:41;7.53;;;5.28;;
21432;SDS011;18592;49.708;10.900;2024-01-30T06:27:45;7.32;;;5.43;;
21432;SDS011;18592;49.708;10.900;2024-01-30T06:29:52;8.38;;;5.00;;
21432;SDS011;18592;49.708;10.900;2024-01-30T06:31:56;7.50;;;5.28;;
21432;SDS011;18592;49.708;10.900;2024-01-30T06:33:59;9.82;;;5.35;;
21432;SDS011;18592;49.708;10.900;2024-01-30T06:36:01;7.57;;;5.40;;
21432;SDS011;18592;49.708;10.900;2024-01-30T06:38:07;7.55;;;5.68;;
21432;SDS011;18592;49.708;10.900;2024-01-30T06:40:09;7.18;;;4.80;;
21432;SDS011;18592;49.708;10.900;2024-01-30T06:42:11;9.93;;;4.85;;
21432;SDS011;18592;49.708;10.900;2024-01-30T06:44:13;7.65;;;5.13;;
21432;SDS011;18592;49.708;10.900;2024-01-30T06:46:15;6.70;;;4.90;;
21432;SDS011;18592;49.708;10.900;2024-01-30T06:48:18;6.03;;;4.50;;
21432;SDS011;18592;49.708;10.900;2024-01-30T06:50:22;5.63;;;4.68;;
21432;SDS011;18592;49.708;10.900;2024-01-30T06:52:24;6.55;;;4.35;;
21432;SDS011;18592;49.708;10.900;2024-01-30T06:54:33;6.78;;;4.55;;
21432;SDS011;18592;49.708;10.900;2024-01-30T06:56:40;6.28;;;4.35;;
21432;SDS011;18592;49.708;10.900;2024-01-30T06:58:47;6.47;;;4.50;;
21432;SDS011;18592;49.708;10.900;2024-01-30T07:00:53;7.50;;;4.57;;
21432;SDS011;18592;49.708;10.900;2024-01-30T07:02:55;6.07;;;4.50;;
21432;SDS011;18592;49.708;10.900;2024-01-30T07:04:57;6.85;;;4.28;;
21432;SDS011;18592;49.708;10.900;2024-01-30T07:06:58;7.10;;;4.38;;
21432;SDS011;18592;49.708;10.900;2024-01-30T07:09:01;8.93;;;5.13;;
21432;SDS011;18592;49.708;10.900;2024-01-30T07:11:09;9.27;;;6.28;;
21432;SDS011;18592;49.708;10.900;2024-01-30T07:13:10;13.35;;;7.82;;
21432;SDS011;18592;49.708;10.900;2024-01-30T07:15:15;14.82;;;7.65;;
21432;SDS011;18592;49.708;10.900;2024-01-30T07:17:22;12.07;;;7.82;;
21432;SDS011;18592;49.708;10.900;2024-01-30T07:19:29;14.85;;;8.25;;
21432;SDS011;18592;49.708;10.900;2024-01-30T07:21:38;12.77;;;8.32;;
21432;SDS011;18592;49.708;10.900;2024-01-30T07:23:42;15.07;;;7.68;;
21432;SDS011;18592;49.708;10.900;2024-01-30T07:25:44;14.38;;;7.90;;
21432;SDS011;18592;49.708;10.900;2024-01-30T07:27:52;14.45;;;8.05;;
21432;SDS011;18592;49.708;10.900;2024-01-30T07:29:54;13.30;;;7.47;;
21432;SDS011;18592;49.708;10.900;2024-01-30T07:31:56;13.73;;;7.80;;
21432;SDS011;18592;49.708;10.900;2024-01-30T07:33:57;14.32;;;7.43;;
21432;SDS011;18592;49.708;10.900;2024-01-30T07:35:59;12.75;;;6.75;;
21432;SDS011;18592;49.708;10.900;2024-01-30T07:38:03;12.07;;;7.07;;
21432;SDS011;18592;49.708;10.900;2024-01-30T07:40:05;11.00;;;6.47;;
21432;SDS011;18592;49.708;10.900;2024-01-30T07:42:08;9.27;;;6.30;;
21432;SDS011;18592;49.708;10.900;2024-01-30T07:44:12;10.95;;;6.55;;
21432;SDS011;18592;49.708;10.900;2024-01-30T07:46:14;10.80;;;6.65;;
21432;SDS011;18592;49.708;10.900;2024-01-30T07:48:21;11.77;;;5.85;;
21432;SDS011;18592;49.708;10.900;2024-01-30T07:50:26;10.38;;;6.30;;
21432;SDS011;18592;49.708;10.900;2024-01-30T07:52:40;8.73;;;5.43;;
21432;SDS011;18592;49.708;10.900;2024-01-30T07:54:45;7.32;;;5.13;;
21432;SDS011;18592;49.708;10.900;2024-01-30T07:56:47;7.68;;;5.05;;
21432;SDS011;18592;49.708;10.900;2024-01-30T07:59:17;10.35;;;5.68;;
21432;SDS011;18592;49.708;10.900;2024-01-30T08:01:59;7.70;;;4.53;;
21432;SDS011;18592;49.708;10.900;2024-01-30T08:04:01;8.15;;;4.80;;
21432;SDS011;18592;49.708;10.900;2024-01-30T08:06:05;6.80;;;4.75;;
21432;SDS011;18592;49.708;10.900;2024-01-30T08:08:08;8.60;;;4.88;;
21432;SDS011;18592;49.708;10.900;2024-01-30T08:10:18;7.20;;;4.78;;
21432;SDS011;18592;49.708;10.900;2024-01-30T08:12:20;7.43;;;5.25;;
21432;SDS011;18592;49.708;10.900;2024-01-30T08:14:25;7.85;;;5.43;;
21432;SDS011;18592;49.708;10.900;2024-01-30T08:16:33;5.80;;;4.40;;
21432;SDS011;18592;49.708;10.900;2024-01-30T08:18:38;7.25;;;4.80;;
21432;SDS011;18592;49.708;10.900;2024-01-30T08:20:43;6.00;;;4.15;;
21432;SDS011;18592;49.708;10.900;2024-01-30T08:22:46;5.72;;;3.67;;
21432;SDS011;18592;49.708;10.900;2024-01-30T08:24:47;5.43;;;3.60;;
21432;SDS011;18592;49.708;10.900;2024-01-30T08:27:01;5.18;;;3.83;;
21432;SDS011;18592;49.708;10.900;2024-01-30T08:29:08;5.32;;;3.60;;
21432;SDS011;18592;49.708;10.900;2024-01-30T08:31:12;7.43;;;3.50;;
21432;SDS011;18592;49.708;10.900;2024-01-30T08:33:15;6.68;;;3.38;;
21432;SDS011;18592;49.708;10.900;2024-01-30T08:35:20;4.53;;;3.20;;
21432;SDS011;18592;49.708;10.900;2024-01-30T08:37:21;4.05;;;3.40;;
21432;SDS011;18592;49.708;10.900;2024-01-30T08:39:26;5.65;;;3.67;;
21432;SDS011;18592;49.708;10.900;2024-01-30T08:41:29;4.07;;;3.40;;
21432;SDS011;18592;49.708;10.900;2024-01-30T08:43:33;5.28;;;3.85;;
21432;SDS011;18592;49.708;10.900;2024-01-30T08:45:35;4.82;;;3.50;;
21432;SDS011;18592;49.708;10.900;2024-01-30T08:47:40;5.80;;;3.55;;
21432;SDS011;18592;49.708;10.900;2024-01-30T08:49:42;4.70;;;3.47;;
21432;SDS011;18592;49.708;10.900;2024-01-30T08:51:47;7.07;;;4.15;;
21432;SDS011;18592;49.708;10.900;2024-01-30T08:53:50;5.18;;;3.38;;
21432;SDS011;18592;49.708;10.900;2024-01-30T08:55:51;4.50;;;3.50;;
21432;SDS011;18592;49.708;10.900;2024-01-30T08:57:53;5.40;;;3.63;;
21432;SDS011;18592;49.708;10.900;2024-01-30T08:59:55;5.03;;;3.50;;
21432;SDS011;18592;49.708;10.900;2024-01-30T09:02:29;5.68;;;3.70;;
21432;SDS011;18592;49.708;10.900;2024-01-30T09:04:30;11.43;;;6.38;;
21432;SDS011;18592;49.708;10.900;2024-01-30T09:06:42;24.48;;;12.63;;
21432;SDS011;18592;49.708;10.900;2024-01-30T09:08:49;20.55;;;11.65;;
21432;SDS011;18592;49.708;10.900;2024-01-30T09:10:53;18.20;;;10.55;;
21432;SDS011;18592;49.708;10.900;2024-01-30T09:13:00;16.35;;;9.13;;
21432;SDS011;18592;49.708;10.900;2024-01-30T09:15:05;13.38;;;7.40;;
21432;SDS011;18592;49.708;10.900;2024-01-30T09:17:09;12.63;;;7.43;;
21432;SDS011;18592;49.708;10.900;2024-01-30T09:19:11;13.60;;;7.13;;
21432;SDS011;18592;49.708;10.900;2024-01-30T09:21:13;11.45;;;6.65;;
21432;SDS011;18592;49.708;10.900;2024-01-30T09:23:17;12.38;;;7.28;;
21432;SDS011;18592;49.708;10.900;2024-01-30T09:25:21;14.63;;;6.78;;
21432;SDS011;18592;49.708;10.900;2024-01-30T09:27:23;11.07;;;6.75;;
21432;SDS011;18592;49.708;10.900;2024-01-30T09:29:25;11.27;;;6.47;;
21432;SDS011;18592;49.708;10.900;2024-01-30T09:31:26;10.50;;;6.35;;
21432;SDS011;18592;49.708;10.900;2024-01-30T09:33:28;9.18;;;5.75;;
21432;SDS011;18592;49.708;10.900;2024-01-30T09:35:33;8.77;;;5.47;;
21432;SDS011;18592;49.708;10.900;2024-01-30T09:37:35;9.77;;;5.95;;
21432;SDS011;18592;49.708;10.900;2024-01-30T09:39:37;10.45;;;5.35;;
21432;SDS011;18592;49.708;10.900;2024-01-30T09:41:45;8.27;;;5.25;;
21432;SDS011;18592;49.708;10.900;2024-01-30T09:43:49;10.38;;;5.35;;
21432;SDS011;18592;49.708;10.900;2024-01-30T09:45:52;9.70;;;5.47;;
21432;SDS011;18592;49.708;10.900;2024-01-30T09:48:01;10.35;;;5.43;;
21432;SDS011;18592;49.708;10.900;2024-01-30T09:50:37;7.63;;;4.43;;
21432;SDS011;18592;49.708;10.900;2024-01-30T09:52:54;6.57;;;4.53;;
21432;SDS011;18592;49.708;10.900;2024-01-30T09:55:09;7.63;;;4.53;;
21432;SDS011;18592;49.708;10.900;2024-01-30T09:57:16;6.30;;;4.40;;
21432;SDS011;18592;49.708;10.900;2024-01-30T09:59:30;9.60;;;4.60;;
21432;SDS011;18592;49.708;10.900;2024-01-30T10:01:37;7.45;;;4.65;;
21432;SDS011;18592;49.708;10.900;2024-01-30T10:03:50;6.03;;;4.00;;
21432;SDS011;18592;49.708;10.900;2024-01-30T10:05:54;8.27;;;3.97;;
21432;SDS011;18592;49.708;10.900;2024-01-30T10:07:57;9.30;;;4.47;;
21432;SDS011;18592;49.708;10.900;2024-01-30T10:10:00;6.78;;;4.05;;
21432;SDS011;18592;49.708;10.900;2024-01-30T10:12:02;6.40;;;4.20;;
21432;SDS011;18592;49.708;10.900;2024-01-30T10:14:05;5.65;;;4.28;;
21432;SDS011;18592;49.708;10.900;2024-01-30T10:16:06;7.18;;;4.43;;
21432;SDS011;18592;49.708;10.900;2024-01-30T10:18:10;5.68;;;4.18;;
21432;SDS011;18592;49.708;10.900;2024-01-30T10:20:16;6.78;;;4.28;;
21432;SDS011;18592;49.708;10.900;2024-01-30T10:22:20;6.70;;;4.07;;
21432;SDS011;18592;49.708;10.900;2024-01-30T10:24:24;8.50;;;5.75;;
21432;SDS011;18592;49.708;10.900;2024-01-30T10:26:29;8.68;;;5.30;;
21432;SDS011;18592;49.708;10.900;2024-01-30T10:28:45;6.22;;;4.80;;
21432;SDS011;18592;49.708;10.900;2024-01-30T10:30:57;5.85;;;4.35;;
21432;SDS011;18592;49.708;10.900;2024-01-30T10:33:10;5.97;;;4.10;;
21432;SDS011;18592;49.708;10.900;2024-01-30T10:35:14;7.72;;;4.55;;
21432;SDS011;18592;49.708;10.900;2024-01-30T10:37:24;5.63;;;4.43;;
21432;SDS011;18592;49.708;10.900;2024-01-30T10:39:29;5.13;;;4.07;;
21432;SDS011;18592;49.708;10.900;2024-01-30T10:41:35;5.72;;;3.92;;
21432;SDS011;18592;49.708;10.900;2024-01-30T10:43:50;4.43;;;3.97;;
21432;SDS011;18592;49.708;10.900;2024-01-30T10:46:19;4.10;;;3.50;;
21432;SDS011;18592;49.708;10.900;2024-01-30T10:48:24;5.93;;;3.97;;
21432;SDS011;18592;49.708;10.900;2024-01-30T10:50:37;5.95;;;3.92;;
21432;SDS011;18592;49.708;10.900;2024-01-30T10:53:02;4.78;;;3.50;;
21432;SDS011;18592;49.708;10.900;2024-01-30T10:55:15;4.68;;;3.55;;
21432;SDS011;18592;49.708;10.900;2024-01-30T10:57:17;5.05;;;4.15;;
21432;SDS011;18592;49.708;10.900;2024-01-30T11:02:56;5.28;;;3.90;;
21432;SDS011;18592;49.708;10.900;2024-01-30T11:05:24;5.45;;;3.40;;
21432;SDS011;18592;49.708;10.900;2024-01-30T11:07:34;5.90;;;4.20;;
21432;SDS011;18592;49.708;10.900;2024-01-30T11:09:36;7.38;;;4.65;;
21432;SDS011;18592;49.708;10.900;2024-01-30T11:11:56;9.73;;;5.57;;
21432;SDS011;18592;49.708;10.900;2024-01-30T11:14:06;11.18;;;6.47;;
21432;SDS011;18592;49.708;10.900;2024-01-30T11:16:10;10.88;;;7.03;;
21432;SDS011;18592;49.708;10.900;2024-01-30T11:18:26;11.10;;;7.15;;
21432;SDS011;18592;49.708;10.900;2024-01-30T11:20:59;11.40;;;6.97;;
21432;SDS011;18592;49.708;10.900;2024-01-30T11:23:21;12.88;;;7.05;;
21432;SDS011;18592;49.708;10.900;2024-01-30T11:25:49;10.25;;;6.15;;
21432;SDS011;18592;49.708;10.900;2024-01-30T11:27:57;11.52;;;6.80;;
21432;SDS011;18592;49.708;10.900;2024-01-30T11:30:22;11.55;;;7.32;;
21432;SDS011;18592;49.708;10.900;2024-01-30T11:32:36;11.82;;;7.05;;
21432;SDS011;18592;49.708;10.900;2024-01-30T11:34:43;12.00;;;7.68;;
21432;SDS011;18592;49.708;10.900;2024-01-30T11:36:48;12.77;;;7.40;;
21432;SDS011;18592;49.708;10.900;2024-01-30T11:39:33;10.13;;;6.88;;
21432;SDS011;18592;49.708;10.900;2024-01-30T11:41:41;8.52;;;6.03;;
21432;SDS011;18592;49.708;10.900;2024-01-30T11:43:53;9.65;;;6.03;;
21432;SDS011;18592;49.708;10.900;2024-01-30T11:46:06;8.43;;;6.10;;
21432;SDS011;18592;49.708;10.900;2024-01-30T11:48:28;9.07;;;5.85;;
21432;SDS011;18592;49.708;10.900;2024-01-30T11:54:33;8.82;;;5.55;;
21432;SDS011;18592;49.708;10.900;2024-01-30T11:57:02;8.98;;;5.88;;
21432;SDS011;18592;49.708;10.900;2024-01-30T11:59:19;9.15;;;6.35;;
21432;SDS011;18592;49.708;10.900;2024-01-30T12:02:08;8.07;;;5.30;;
21432;SDS011;18592;49.708;10.900;2024-01-30T12:04:51;10.55;;;5.45;;
21432;SDS011;18592;49.708;10.900;2024-01-30T12:07:13;8.35;;;4.72;;
21432;SDS011;18592;49.708;10.900;2024-01-30T12:09:35;7.82;;;5.13;;
21432;SDS011;18592;49.708;10.900;2024-01-30T12:11:46;7.88;;;5.30;;
21432;SDS011;18592;49.708;10.900;2024-01-30T12:13:54;9.15;;;5.80;;
21432;SDS011;18592;49.708;10.900;2024-01-30T12:16:39;7.97;;;4.90;;
21432;SDS011;18592;49.708;10.900;2024-01-30T12:18:47;6.78;;;4.80;;